Time;durP1;ratioP1;P1;durP2;ratioP2;P2;SDS_P1;SDS_P2;PMS_P1;PMS_P2;Temp;Humidity;BMP_temperature;BMP_pressure;BME280_temperature;BME280_humidity;BME280_pressure;Samples;Min_cycle;Max_cycle;Signal;HPM_P1;HPM_P2
2023/01/26 00:01:22;;;;;;;15.00;4.00;;;;;;;5.09;92.92;102867.22;5044234;28;20049;-44
2023/01/26 00:03:49;;;;;;;25.50;5.57;;;;;;;5.08;93.08;102866.44;5045273;28;20370;-44
2023/01/26 00:06:18;;;;;;;16.48;6.18;;;;;;;5.08;92.93;102877.41;5049064;28;20052;-48
2023/01/26 00:08:47;;;;;;;27.40;5.03;;;;;;;5.05;92.87;102868.84;5061727;28;20110;-45
2023/01/26 00:11:16;;;;;;;17.63;5.20;;;;;;;5.04;93.12;102880.91;5048726;28;20046;-44
2023/01/26 00:13:43;;;;;;;19.50;5.10;;;;;;;5.05;92.99;102896.28;5029398;28;20450;-44
2023/01/26 00:16:14;;;;;;;24.73;5.03;;;;;;;5.06;93.31;102897.94;5048482;28;20300;-44
2023/01/26 00:18:42;;;;;;;13.65;3.97;;;;;;;5.09;93.19;102901.00;5047927;28;20556;-44
2023/01/26 00:21:14;;;;;;;24.75;5.63;;;;;;;5.08;92.97;102882.06;5048065;28;20054;-44
2023/01/26 00:23:41;;;;;;;;;;;;;;;5.06;93.17;102874.06;5049046;28;20036;-44
2023/01/26 00:26:09;;;;;;;17.42;7.20;;;;;;;5.04;93.20;102873.50;5047796;28;19960;-45
2023/01/26 00:28:36;;;;;;;18.33;5.28;;;;;;;5.01;92.91;102862.19;5047918;28;20056;-44
2023/01/26 00:31:05;;;;;;;19.58;5.47;;;;;;;4.99;92.86;102862.47;5047772;28;20499;-44
2023/01/26 00:33:32;;;;;;;29.48;5.28;;;;;;;4.99;93.01;102858.88;5047934;28;20037;-49
2023/01/26 00:35:59;;;;;;;27.73;5.20;;;;;;;5.00;93.28;102860.56;5047893;28;20049;-44
2023/01/26 00:38:25;;;;;;;22.73;4.88;;;;;;;4.98;93.17;102855.28;5059021;28;20063;-44
2023/01/26 00:40:52;;;;;;;22.58;4.20;;;;;;;4.96;93.25;102845.66;5048221;28;20110;-45
2023/01/26 00:43:19;;;;;;;20.77;6.07;;;;;;;4.97;93.08;102848.16;5026230;28;20503;-42
2023/01/26 00:45:47;;;;;;;13.30;4.63;;;;;;;4.98;93.06;102863.53;5047003;28;20498;-44
2023/01/26 00:48:14;;;;;;;16.77;5.47;;;;;;;4.99;93.42;102867.13;5047880;28;20080;-42
2023/01/26 00:50:40;;;;;;;24.55;5.35;;;;;;;4.98;93.10;102865.47;5045175;28;20060;-41
2023/01/26 00:53:08;;;;;;;13.93;5.47;;;;;;;4.97;93.16;102861.91;5047263;28;20056;-43
2023/01/26 00:55:34;;;;;;;20.55;5.60;;;;;;;4.97;93.17;102859.16;5047835;28;20040;-42
2023/01/26 00:58:06;;;;;;;24.25;4.82;;;;;;;4.95;93.11;102871.47;5047770;28;20052;-42
2023/01/26 01:00:35;;;;;;;23.67;4.40;;;;;;;4.94;93.44;102867.88;5047938;28;20399;-42
2023/01/26 01:03:02;;;;;;;23.02;4.05;;;;;;;4.95;93.64;102855.00;5034574;28;20049;-41
2023/01/26 01:05:31;;;;;;;20.35;5.03;;;;;;;4.94;93.44;102840.44;5047756;28;20167;-45
2023/01/26 01:07:58;;;;;;;16.23;4.25;;;;;;;4.92;93.26;102828.91;5051201;28;20136;-41
2023/01/26 01:10:27;;;;;;;25.17;6.28;;;;;;;4.90;93.23;102820.06;5047403;28;20114;-44
2023/01/26 01:12:55;;;;;;;12.90;3.55;;;;;;;4.89;93.58;102830.25;5047431;28;20045;-44
2023/01/26 01:15:23;;;;;;;23.40;5.70;;;;;;;4.88;93.36;102827.72;5047626;28;20542;-45
2023/01/26 01:17:49;;;;;;;24.48;4.50;;;;;;;4.89;93.53;102822.00;5047574;28;20056;-42
2023/01/26 01:20:16;;;;;;;22.75;6.45;;;;;;;4.91;93.58;102830.81;5047342;28;20053;-42
2023/01/26 01:22:43;;;;;;;23.65;4.63;;;;;;;4.94;93.30;102837.69;5047251;28;20041;-42
2023/01/26 01:25:10;;;;;;;25.77;5.22;;;;;;;4.99;93.66;102835.00;5046918;28;20052;-44
2023/01/26 01:27:36;;;;;;;14.65;4.10;;;;;;;5.01;93.38;102829.25;5046979;28;20064;-41
2023/01/26 01:30:06;;;;;;;14.63;4.40;;;;;;;5.02;93.15;102829.00;5047174;28;20049;-41
2023/01/26 01:32:34;;;;;;;17.40;3.70;;;;;;;5.04;93.20;102832.31;5027731;28;20036;-43
2023/01/26 01:35:01;;;;;;;18.77;5.75;;;;;;;5.08;93.61;102852.69;5046849;28;20037;-41
2023/01/26 01:37:29;;;;;;;16.50;3.85;;;;;;;5.09;93.19;102857.09;5054675;28;20548;-41
2023/01/26 01:39:55;;;;;;;13.55;3.22;;;;;;;5.11;93.07;102849.41;5018071;28;20053;-41
2023/01/26 01:42:22;;;;;;;14.38;4.10;;;;;;;5.11;93.11;102848.59;5043676;28;20064;-45
2023/01/26 01:45:20;;;;;;;15.18;3.33;;;;;;;5.14;93.09;102853.56;5047003;28;20045;-43
2023/01/26 01:47:46;;;;;;;23.42;3.83;;;;;;;5.13;93.03;102852.75;5047461;28;20057;-42
2023/01/26 01:50:17;;;;;;;11.52;3.63;;;;;;;5.15;93.13;102841.50;5047905;28;20076;-41
2023/01/26 01:52:44;;;;;;;22.30;5.13;;;;;;;5.15;92.90;102834.09;5047792;28;20045;-42
2023/01/26 01:55:13;;;;;;;25.02;3.67;;;;;;;5.16;92.79;102834.94;5051513;28;20486;-45
2023/01/26 01:57:45;;;;;;;24.33;4.07;;;;;;;5.13;92.89;102825.28;5051430;28;20044;-49
2023/01/26 02:00:15;;;;;;;36.60;6.43;;;;;;;5.13;92.90;102819.81;5051517;28;20098;-41
2023/01/26 02:02:43;;;;;;;19.58;4.25;;;;;;;5.12;92.78;102822.78;5038079;28;20045;-41
2023/01/26 02:05:25;;;;;;;15.10;3.65;;;;;;;5.12;92.75;102826.38;5051424;28;20059;-41
2023/01/26 02:07:53;;;;;;;18.92;3.70;;;;;;;5.14;92.59;102837.09;5046215;28;20040;-42
2023/01/26 02:10:20;;;;;;;24.88;6.32;;;;;;;5.16;92.65;102843.16;5051568;28;20052;-42
2023/01/26 02:12:55;;;;;;;17.65;4.18;;;;;;;5.15;92.73;102849.72;5051006;28;20048;-42
2023/01/26 02:15:22;;;;;;;23.77;4.97;;;;;;;5.17;92.37;102842.06;5050602;28;20059;-44
2023/01/26 02:17:53;;;;;;;22.83;4.82;;;;;;;5.17;92.85;102853.88;5051025;28;20049;-42
2023/01/26 02:20:32;;;;;;;18.85;5.10;;;;;;;5.17;92.63;102848.38;5050654;28;20084;-45
2023/01/26 02:22:58;;;;;;;28.50;4.75;;;;;;;5.18;92.45;102861.03;5051190;28;20402;-41
2023/01/26 02:25:41;;;;;;;18.02;4.47;;;;;;;5.19;92.78;102850.91;5051067;28;20124;-41
2023/01/26 02:28:08;;;;;;;;;;;;;;;5.18;92.38;102849.22;5051547;28;20057;-42
2023/01/26 02:30:34;;;;;;;19.80;4.38;;;;;;;5.18;92.37;102833.59;5050023;28;19931;-42
2023/01/26 02:33:01;;;;;;;25.30;4.07;;;;;;;5.19;92.44;102839.91;5050765;28;20060;-41
2023/01/26 02:35:28;;;;;;;16.40;3.90;;;;;;;5.20;92.65;102858.03;5050121;28;20124;-44
2023/01/26 02:37:54;;;;;;;19.08;3.80;;;;;;;5.19;92.51;102857.19;5061317;28;20058;-41
2023/01/26 02:40:47;;;;;;;16.70;3.92;;;;;;;5.21;92.54;102866.03;5051218;28;20041;-43
2023/01/26 02:43:14;;;;;;;20.23;3.53;;;;;;;5.22;92.58;102864.91;5050216;28;20040;-49
2023/01/26 02:45:42;;;;;;;18.75;5.05;;;;;;;5.23;92.75;102869.34;5050336;28;20047;-41
2023/01/26 02:48:08;;;;;;;19.02;4.03;;;;;;;5.23;92.71;102863.84;5049921;28;20391;-46
2023/01/26 02:50:35;;;;;;;14.85;4.80;;;;;;;5.24;92.76;102860.00;5050147;28;20495;-41
2023/01/26 02:53:03;;;;;;;28.23;5.88;;;;;;;5.25;92.75;102861.66;5049581;28;20410;-42
2023/01/26 02:55:29;;;;;;;20.40;4.60;;;;;;;5.27;92.54;102864.97;5049711;28;20056;-41
2023/01/26 02:58:02;;;;;;;27.27;6.63;;;;;;;5.28;92.73;102865.81;5050033;28;20148;-42
2023/01/26 03:00:40;;;;;;;;;;;;;;;5.27;92.49;102861.41;5139223;23;20049;-42
2023/01/26 03:03:13;;;;;;;27.13;5.45;;;;;;;5.27;92.56;102853.97;5022239;28;19929;-41
2023/01/26 03:05:41;;;;;;;14.38;4.05;;;;;;;5.27;92.63;102847.69;5030074;28;20041;-43
2023/01/26 03:08:07;;;;;;;19.73;3.80;;;;;;;5.26;92.79;102857.84;5032708;28;20049;-42
2023/01/26 03:10:34;;;;;;;23.70;5.68;;;;;;;5.27;92.58;102859.47;5029263;28;20053;-41
2023/01/26 03:13:01;;;;;;;23.83;3.58;;;;;;;5.29;92.79;102851.84;5029872;28;20144;-41
2023/01/26 03:15:42;;;;;;;21.15;4.65;;;;;;;5.28;92.58;102865.81;5024953;28;20049;-41
2023/01/26 03:29:16;;;;;;;17.48;4.53;;;;;;;5.26;92.58;102877.06;5029654;28;20048;-41
2023/01/26 03:31:43;;;;;;;18.75;5.18;;;;;;;5.26;92.73;102867.97;5011812;28;20462;-41
2023/01/26 03:34:10;;;;;;;24.00;4.30;;;;;;;5.26;92.80;102866.06;5029164;28;20058;-41
2023/01/26 03:36:37;;;;;;;16.50;4.53;;;;;;;5.27;92.71;102864.97;5029657;28;20473;-41
2023/01/26 03:39:04;;;;;;;20.17;4.43;;;;;;;5.28;92.61;102860.31;5040234;28;20071;-41
2023/01/26 03:58:02;;;;;;;19.63;3.03;;;;;;;5.28;92.75;102863.91;5029165;28;20045;-40
2023/01/26 04:00:29;;;;;;;19.67;3.15;;;;;;;5.30;92.73;102869.13;5028915;28;20045;-46
2023/01/26 04:08:43;;;;;;;14.90;3.58;;;;;;;5.32;92.76;102858.72;5050979;28;20059;-41
2023/01/26 04:11:10;;;;;;;16.27;4.22;;;;;;;5.34;92.57;102864.78;5048541;28;20505;-41
2023/01/26 04:21:53;;;;;;;12.90;3.38;;;;;;;5.37;92.12;102875.25;5047581;28;20041;-41
2023/01/26 04:24:21;;;;;;;16.08;3.97;;;;;;;5.36;92.18;102877.16;5048096;28;20128;-41
2023/01/26 04:26:48;;;;;;;18.27;3.90;;;;;;;5.37;92.39;102881.59;5047494;28;20068;-49
2023/01/26 04:29:15;;;;;;;16.00;3.45;;;;;;;5.37;92.01;102881.59;5048527;28;20446;-41
2023/01/26 04:31:42;;;;;;;18.00;3.13;;;;;;;5.38;92.21;102882.38;5047474;28;20045;-49
2023/01/26 04:34:12;;;;;;;15.95;3.25;;;;;;;5.37;91.91;102870.59;5048020;28;20049;-42
2023/01/26 04:36:40;;;;;;;16.83;4.25;;;;;;;5.35;92.07;102866.41;5048049;28;20075;-41
2023/01/26 04:39:08;;;;;;;20.17;3.28;;;;;;;5.30;91.54;102864.47;5040316;28;20478;-41
2023/01/26 04:41:35;;;;;;;19.02;4.40;;;;;;;5.24;91.62;102868.22;5046063;28;20410;-41
2023/01/26 04:44:01;;;;;;;17.35;3.00;;;;;;;5.18;91.55;102876.69;5048532;28;20079;-41
2023/01/26 04:46:28;;;;;;;21.50;4.72;;;;;;;5.11;91.34;102882.34;5047467;28;20049;-41
2023/01/26 04:48:55;;;;;;;17.20;3.28;;;;;;;5.06;91.38;102885.03;5047872;28;20052;-41
2023/01/26 04:51:22;;;;;;;29.10;3.92;;;;;;;5.02;90.93;102883.91;5047365;28;20574;-41
2023/01/26 04:53:50;;;;;;;19.00;3.35;;;;;;;4.96;91.45;102893.16;5047472;28;20409;-41
2023/01/26 04:56:21;;;;;;;10.63;2.78;;;;;;;4.91;91.35;102895.84;5047143;28;20044;-45
2023/01/26 04:58:48;;;;;;;18.73;4.15;;;;;;;4.88;91.21;102901.84;5047337;28;20557;-41
2023/01/26 05:01:15;;;;;;;12.65;2.60;;;;;;;4.83;91.43;102902.63;5047457;28;20449;-41
2023/01/26 05:03:42;;;;;;;21.58;3.20;;;;;;;4.80;91.34;102896.78;5047395;28;20153;-40
2023/01/26 05:06:08;;;;;;;13.32;2.78;;;;;;;4.76;91.20;102892.91;5029444;28;20059;-41
2023/01/26 05:08:36;;;;;;;13.35;2.97;;;;;;;4.74;91.21;102895.88;5051581;28;20072;-41
2023/01/26 05:11:03;;;;;;;19.75;4.72;;;;;;;4.72;91.10;102894.47;5046965;28;20051;-40
2023/01/26 05:13:30;;;;;;;21.38;4.00;;;;;;;4.68;91.23;102890.59;5047325;28;20136;-41
2023/01/26 05:15:56;;;;;;;9.90;2.90;;;;;;;4.65;91.32;102894.69;5047259;28;20063;-42
2023/01/26 05:18:23;;;;;;;11.25;3.00;;;;;;;4.62;91.00;102894.34;5047306;28;20051;-43
2023/01/26 05:20:50;;;;;;;14.45;3.72;;;;;;;4.60;91.03;102902.00;5047636;28;20358;-49
2023/01/26 05:23:16;;;;;;;14.82;3.17;;;;;;;4.57;91.14;102899.78;5047133;28;20047;-44
2023/01/26 05:25:43;;;;;;;15.63;3.63;;;;;;;4.54;91.10;102903.00;5046908;28;20045;-51
2023/01/26 05:28:10;;;;;;;18.77;2.95;;;;;;;4.52;90.92;102899.69;5046584;28;20049;-43
2023/01/26 05:30:36;;;;;;;17.58;3.72;;;;;;;4.48;90.94;102895.78;5047279;28;20047;-51
2023/01/26 05:33:05;;;;;;;11.13;3.10;;;;;;;4.47;90.99;102884.00;5046959;28;20552;-44
2023/01/26 05:35:33;;;;;;;13.32;2.75;;;;;;;4.47;91.27;102883.16;5047193;28;20048;-44
2023/01/26 05:38:00;;;;;;;14.77;3.50;;;;;;;4.46;91.03;102878.75;5057910;28;20048;-50
2023/01/26 05:40:27;;;;;;;17.40;2.92;;;;;;;4.44;91.08;102884.50;5047285;28;20029;-43
2023/01/26 05:42:54;;;;;;;13.50;2.63;;;;;;;4.42;90.92;102880.34;5028874;28;20054;-44
2023/01/26 05:45:20;;;;;;;11.95;2.80;;;;;;;4.41;91.08;102886.91;5047183;28;20048;-44
2023/01/26 05:47:47;;;;;;;13.10;2.42;;;;;;;4.40;90.90;102897.03;5046547;28;20045;-43
2023/01/26 05:50:14;;;;;;;15.35;3.80;;;;;;;4.40;90.86;102887.97;5046907;28;20074;-43
2023/01/26 05:52:42;;;;;;;9.70;2.33;;;;;;;4.40;91.01;102891.56;5046853;28;20363;-45
2023/01/26 05:55:09;;;;;;;18.60;2.75;;;;;;;4.40;91.14;102899.78;5047441;28;20044;-44
2023/01/26 05:57:36;;;;;;;14.48;2.92;;;;;;;4.41;91.09;102892.41;5046634;28;20049;-44
2023/01/26 06:00:04;;;;;;;13.52;2.60;;;;;;;4.39;90.82;102902.78;5047886;28;20053;-51
2023/01/26 06:02:31;;;;;;;18.58;3.55;;;;;;;4.38;90.91;102901.13;5046877;28;20037;-43
2023/01/26 06:04:58;;;;;;;9.75;2.95;;;;;;;4.36;90.75;102906.03;5047005;28;20521;-45
2023/01/26 06:07:25;;;;;;;14.52;1.90;;;;;;;4.35;90.82;102912.59;5051329;28;20041;-45
2023/01/26 06:09:52;;;;;;;20.70;3.65;;;;;;;4.34;90.76;102908.22;5046759;28;20499;-44
2023/01/26 06:12:20;;;;;;;10.82;2.63;;;;;;;4.33;90.87;102904.63;5028911;28;20580;-44
2023/01/26 06:14:47;;;;;;;9.63;2.55;;;;;;;4.34;91.15;102914.53;5047073;28;20041;-44
2023/01/26 06:17:16;;;;;;;20.25;4.20;;;;;;;4.34;90.87;102913.69;5046800;28;20411;-43
2023/01/26 06:19:43;;;;;;;11.35;2.30;;;;;;;4.35;91.04;102907.94;5046971;28;20443;-43
2023/01/26 06:22:11;;;;;;;11.73;2.28;;;;;;;4.36;90.95;102917.00;5046748;28;20151;-44
2023/01/26 06:24:38;;;;;;;15.68;2.65;;;;;;;4.34;90.69;102922.75;5047110;28;20326;-44
2023/01/26 06:27:07;;;;;;;10.57;2.13;;;;;;;4.32;90.75;102922.16;5046134;28;20110;-43
2023/01/26 06:29:34;;;;;;;16.58;3.15;;;;;;;4.30;91.05;102918.84;5046908;28;20049;-43
2023/01/26 06:32:00;;;;;;;16.95;3.17;;;;;;;4.30;91.00;102913.34;5046721;28;20487;-46
2023/01/26 06:34:27;;;;;;;21.55;3.10;;;;;;;4.31;90.92;102921.31;5047536;28;20045;-43
2023/01/26 06:36:55;;;;;;;18.08;3.67;;;;;;;4.31;90.86;102915.81;5048829;28;20045;-44
2023/01/26 06:39:21;;;;;;;16.48;4.43;;;;;;;4.31;90.66;102924.06;5047410;28;20041;-43
2023/01/26 06:41:48;;;;;;;16.92;2.72;;;;;;;4.32;91.09;102916.66;5050438;28;20094;-43
2023/01/26 06:44:15;;;;;;;13.48;3.33;;;;;;;4.35;90.92;102926.31;5050563;28;20055;-43
2023/01/26 06:46:41;;;;;;;10.25;2.40;;;;;;;4.37;90.91;102924.16;5031713;28;20044;-46
2023/01/26 06:49:08;;;;;;;13.90;2.38;;;;;;;4.37;91.14;102932.38;5049948;28;20044;-44
2023/01/26 06:51:56;;;;;;;11.10;2.63;;;;;;;4.40;90.70;102931.84;5049439;28;20045;-43
2023/01/26 06:54:22;;;;;;;13.20;3.10;;;;;;;4.39;91.03;102922.81;5049784;28;20052;-53
2023/01/26 06:56:49;;;;;;;14.48;2.05;;;;;;;4.40;90.87;102915.41;5050386;28;20052;-43
2023/01/26 06:59:16;;;;;;;18.33;3.90;;;;;;;4.41;90.96;102925.31;5050252;28;20045;-44
2023/01/26 07:01:46;;;;;;;10.43;3.42;;;;;;;4.40;90.83;102924.47;5049304;28;20049;-44
2023/01/26 07:04:13;;;;;;;23.55;3.28;;;;;;;4.38;91.06;102937.59;5049502;28;20419;-50
2023/01/26 07:06:39;;;;;;;13.02;2.47;;;;;;;4.39;90.69;102941.19;5049607;28;20052;-44
2023/01/26 07:09:06;;;;;;;18.98;3.55;;;;;;;4.39;90.74;102933.81;5053511;28;20041;-44
2023/01/26 07:11:33;;;;;;;12.13;2.75;;;;;;;4.38;90.70;102934.03;5049157;28;20045;-44
2023/01/26 07:14:00;;;;;;;14.50;2.72;;;;;;;4.37;90.64;102948.84;5049860;28;20056;-43
2023/01/26 07:16:27;;;;;;;11.52;2.03;;;;;;;4.37;90.76;102948.84;5049497;28;20387;-44
2023/01/26 07:18:54;;;;;;;12.98;2.35;;;;;;;4.37;90.65;102952.38;5049550;28;20053;-44
2023/01/26 07:21:22;;;;;;;23.67;5.82;;;;;;;4.38;90.68;102954.06;5049132;28;20172;-52
2023/01/26 07:23:50;;;;;;;10.35;2.58;;;;;;;4.40;90.70;102951.06;5049647;28;20465;-43
2023/01/26 07:26:17;;;;;;;20.88;4.07;;;;;;;4.41;90.81;102956.31;5049549;28;20045;-49
2023/01/26 07:28:44;;;;;;;14.38;3.13;;;;;;;4.43;90.95;102958.78;5049327;28;20052;-43
2023/01/26 07:31:11;;;;;;;16.50;3.17;;;;;;;4.44;90.74;102955.81;5049074;28;20045;-43
2023/01/26 07:33:38;;;;;;;13.00;3.00;;;;;;;4.44;90.68;102952.22;5048753;28;20538;-45
2023/01/26 07:36:06;;;;;;;14.25;2.95;;;;;;;4.43;90.81;102965.13;5049039;28;20044;-45
2023/01/26 07:38:33;;;;;;;12.40;3.13;;;;;;;4.43;90.75;102962.38;5033564;28;20477;-43
2023/01/26 07:41:05;;;;;;;12.50;2.22;;;;;;;4.43;90.70;102954.13;5049178;28;20482;-44
2023/01/26 07:43:34;;;;;;;9.43;3.85;;;;;;;4.43;90.67;102958.78;5047155;28;20113;-44
2023/01/26 07:46:00;;;;;;;9.27;2.42;;;;;;;4.42;90.71;102954.41;5048619;28;20526;-46
2023/01/26 07:48:28;;;;;;;15.25;2.38;;;;;;;4.43;90.73;102953.31;5048749;28;20102;-45
2023/01/26 07:50:59;;;;;;;10.32;3.42;;;;;;;4.41;90.49;102955.47;5047891;28;20047;-47
2023/01/26 07:53:28;;;;;;;29.80;7.25;;;;;;;4.39;90.50;102953.00;5048811;28;20433;-44
2023/01/26 07:56:05;;;;;;;18.33;3.10;;;;;;;4.39;90.80;102954.91;5030280;28;20048;-43
2023/01/26 07:58:34;;;;;;;14.48;2.30;;;;;;;4.37;91.08;102962.56;5048929;28;20048;-46
2023/01/26 08:01:19;;;;;;;15.88;2.72;;;;;;;4.35;90.77;102959.22;5048439;28;20049;-44
2023/01/26 08:03:49;;;;;;;13.98;3.42;;;;;;;4.34;90.88;102960.31;5030575;28;20049;-45
2023/01/26 08:06:17;;;;;;;12.88;2.53;;;;;;;4.30;90.88;102952.56;5048712;28;20053;-46
2023/01/26 08:08:52;;;;;;;11.77;3.53;;;;;;;4.27;90.96;102964.03;5052176;28;20041;-43
2023/01/26 08:11:21;;;;;;;9.88;3.42;;;;;;;4.26;90.74;102953.34;5048257;28;20080;-43
2023/01/26 08:13:50;;;;;;;12.60;3.17;;;;;;;4.24;90.97;102956.31;5048345;28;20060;-45
2023/01/26 08:16:17;;;;;;;17.08;2.67;;;;;;;4.20;90.79;102949.69;5048094;28;20118;-44
2023/01/26 08:18:45;;;;;;;13.65;2.58;;;;;;;4.17;90.61;102952.91;5047967;28;20107;-44
2023/01/26 08:21:14;;;;;;;13.15;2.80;;;;;;;4.16;90.72;102947.66;5048270;28;20509;-44
2023/01/26 08:23:41;;;;;;;15.02;2.17;;;;;;;4.11;90.69;102948.41;5047892;28;20079;-44
2023/01/26 08:26:11;;;;;;;11.70;2.53;;;;;;;4.09;90.80;102956.06;5048192;28;20059;-44
2023/01/26 08:28:38;;;;;;;14.13;4.30;;;;;;;4.08;90.86;102954.38;5048060;28;20107;-43
2023/01/26 08:31:18;;;;;;;10.93;4.13;;;;;;;4.05;90.63;102959.56;5048305;28;20053;-44
2023/01/26 08:33:49;;;;;;;13.07;3.67;;;;;;;4.04;90.70;102961.44;5048354;28;20057;-44
2023/01/26 08:36:17;;;;;;;13.45;2.35;;;;;;;4.03;90.59;102962.53;5047892;28;20144;-43
2023/01/26 08:38:47;;;;;;;13.88;2.88;;;;;;;4.00;91.09;102951.22;5048977;28;20537;-45
2023/01/26 08:41:14;;;;;;;20.55;3.42;;;;;;;3.98;91.07;102954.22;5047982;28;20053;-44
2023/01/26 08:43:41;;;;;;;16.65;4.43;;;;;;;3.95;90.83;102960.19;5048064;28;20041;-44
2023/01/26 08:46:08;;;;;;;19.63;5.22;;;;;;;3.93;90.88;102967.81;5047956;28;20053;-43
2023/01/26 08:48:36;;;;;;;9.05;2.10;;;;;;;3.94;91.20;102974.16;5047678;28;20533;-47
2023/01/26 08:51:04;;;;;;;11.95;2.60;;;;;;;3.95;90.94;102976.63;5047797;28;20088;-43
2023/01/26 08:53:33;;;;;;;25.92;4.32;;;;;;;4.00;91.13;102981.34;5047618;28;20056;-44
2023/01/26 08:56:04;;;;;;;20.63;4.20;;;;;;;4.06;91.20;102977.63;5047353;28;20053;-43
2023/01/26 08:58:32;;;;;;;14.48;3.65;;;;;;;4.10;90.97;102976.88;5047562;28;20072;-44
2023/01/26 09:01:07;;;;;;;17.30;2.70;;;;;;;4.16;90.80;102966.84;5047136;28;20112;-52
2023/01/26 09:03:34;;;;;;;9.57;2.60;;;;;;;4.18;91.11;102960.03;5047513;28;20059;-51
2023/01/26 09:06:03;;;;;;;10.35;2.28;;;;;;;4.20;91.06;102984.47;5047715;28;20556;-45
2023/01/26 09:08:31;;;;;;;13.02;3.30;;;;;;;4.20;91.19;102990.78;5050548;28;20061;-45
2023/01/26 09:10:58;;;;;;;15.25;3.22;;;;;;;4.21;91.09;102986.97;5048127;28;20041;-52
2023/01/26 09:13:24;;;;;;;10.98;2.75;;;;;;;4.21;91.12;102988.84;5047982;28;20048;-47
2023/01/26 09:15:51;;;;;;;12.57;2.25;;;;;;;4.21;91.05;102991.59;5047044;28;20166;-46
2023/01/26 09:18:19;;;;;;;12.75;3.53;;;;;;;4.21;91.13;102995.19;5048062;28;20878;-45
2023/01/26 09:20:46;;;;;;;12.43;3.13;;;;;;;4.23;91.09;102986.72;5047469;28;20056;-44
2023/01/26 09:23:15;;;;;;;13.25;3.40;;;;;;;4.24;90.73;102996.59;5047378;28;20037;-47
2023/01/26 09:25:41;;;;;;;15.55;3.33;;;;;;;4.31;90.83;102998.09;5047419;28;20068;-44
2023/01/26 09:28:08;;;;;;;16.73;2.78;;;;;;;4.37;91.03;102992.72;5047697;28;20044;-44
2023/01/26 09:30:35;;;;;;;14.35;2.70;;;;;;;4.40;91.07;102989.44;5047509;28;20037;-44
2023/01/26 09:33:03;;;;;;;17.42;4.75;;;;;;;4.43;90.92;102994.44;5047601;28;20132;-47
2023/01/26 09:35:30;;;;;;;16.83;2.58;;;;;;;4.47;90.97;102998.38;5046670;28;20051;-44
2023/01/26 09:37:57;;;;;;;14.48;4.13;;;;;;;4.51;90.98;103002.25;5058028;28;20051;-44
2023/01/26 09:40:40;;;;;;;13.15;3.30;;;;;;;4.57;90.95;102995.78;5046862;28;20410;-45
2023/01/26 09:43:22;;;;;;;11.90;2.55;;;;;;;4.65;91.10;103003.59;5046377;28;20041;-44
2023/01/26 09:46:17;;;;;;;4.87;1.77;;;;;;;4.75;90.83;103009.22;5047244;28;20265;-44
2023/01/26 09:49:12;;;;;;;15.68;2.72;;;;;;;4.89;90.50;103019.63;5034801;28;20033;-44
2023/01/26 09:51:46;;;;;;;13.75;2.20;;;;;;;5.00;90.72;103026.09;5026005;28;20099;-44
2023/01/26 09:54:31;;;;;;;14.05;3.55;;;;;;;5.10;90.32;103018.00;5047382;28;20747;-44
2023/01/26 09:57:09;;;;;;;11.07;2.83;;;;;;;5.16;90.27;103022.47;5047098;28;20072;-44
2023/01/26 09:59:43;;;;;;;20.85;4.18;;;;;;;5.21;90.33;103025.28;5047123;28;20426;-43
2023/01/26 10:02:10;;;;;;;8.05;2.33;;;;;;;5.27;90.61;103024.25;5046346;28;20052;-45
2023/01/26 10:04:41;;;;;;;7.40;1.83;;;;;;;5.32;90.60;103021.56;5046604;28;20099;-41
2023/01/26 10:07:10;;;;;;;10.00;3.60;;;;;;;5.36;90.42;103025.50;5050039;28;20040;-41
2023/01/26 10:09:40;;;;;;;8.90;2.05;;;;;;;5.39;90.49;103027.72;5047567;28;20056;-45
2023/01/26 10:12:16;;;;;;;8.27;2.10;;;;;;;5.39;90.54;103030.47;5047013;28;20060;-42
2023/01/26 10:15:01;;;;;;;13.35;3.15;;;;;;;5.41;90.43;103033.78;5049142;28;20670;-45
2023/01/26 10:17:35;;;;;;;11.32;2.65;;;;;;;5.43;90.41;103031.59;5050728;28;20040;-42
2023/01/26 10:20:19;;;;;;;10.32;2.20;;;;;;;5.39;90.20;103033.22;5050467;28;20055;-43
2023/01/26 10:22:50;;;;;;;16.15;3.72;;;;;;;5.35;90.33;103036.72;5032577;28;20055;-45
2023/01/26 10:25:26;;;;;;;9.80;2.58;;;;;;;5.27;90.24;103029.75;5050244;28;20409;-42
2023/01/26 10:27:53;;;;;;;8.15;1.95;;;;;;;5.22;90.29;103037.09;5050205;28;20135;-41
2023/01/26 10:30:20;;;;;;;12.65;2.20;;;;;;;5.16;90.51;103035.38;5050164;28;20045;-42
2023/01/26 10:32:51;;;;;;;16.55;2.85;;;;;;;5.12;90.55;103045.19;5050437;28;20116;-42
2023/01/26 10:35:23;;;;;;;13.90;4.20;;;;;;;5.10;90.89;103039.97;5050050;28;20037;-42
2023/01/26 10:37:51;;;;;;;9.88;2.03;;;;;;;5.10;91.15;103034.47;5064745;28;20048;-45
2023/01/26 10:40:19;;;;;;;6.20;1.50;;;;;;;5.10;91.14;103028.97;5051376;28;20115;-42
2023/01/26 10:42:58;;;;;;;11.13;2.38;;;;;;;5.08;90.81;103035.81;5049768;28;20187;-49
2023/01/26 10:45:30;;;;;;;16.20;4.82;;;;;;;5.07;90.89;103040.47;5044727;28;20049;-49
2023/01/26 10:48:19;;;;;;;11.15;2.17;;;;;;;5.10;91.33;103050.09;5049958;28;20041;-42
2023/01/26 10:50:46;;;;;;;10.77;3.67;;;;;;;5.11;90.80;103043.53;5050387;28;20475;-42
2023/01/26 10:53:17;;;;;;;11.65;2.42;;;;;;;5.16;91.19;103046.34;5050505;28;20051;-42
2023/01/26 10:55:57;;;;;;;9.80;1.70;;;;;;;5.22;90.99;103045.31;5032512;28;20445;-42
2023/01/26 10:58:54;;;;;;;14.48;2.85;;;;;;;5.30;90.94;103045.72;5049753;28;20437;-42
2023/01/26 11:01:22;;;;;;;14.88;3.28;;;;;;;5.35;90.83;103048.53;5047942;28;20398;-43
2023/01/26 11:04:04;;;;;;;6.65;2.17;;;;;;;5.39;90.54;103049.69;5050110;28;20203;-41
2023/01/26 11:06:31;;;;;;;;;;;;;;;5.39;90.85;103048.88;5038436;28;20041;-42
2023/01/26 11:09:13;;;;;;;6.90;2.88;;;;;;;5.37;90.60;103062.88;5052894;28;20468;-44
2023/01/26 11:11:40;;;;;;;5.97;2.08;;;;;;;5.36;91.04;103066.69;5040505;28;20383;-43
2023/01/26 11:14:14;;;;;;;5.45;1.23;;;;;;;5.44;91.03;103062.66;5049108;28;20060;-44
2023/01/26 11:16:49;;;;;;;8.25;1.70;;;;;;;5.56;91.01;103059.81;5049383;28;20037;-41
2023/01/26 11:19:41;;;;;;;11.30;2.72;;;;;;;5.78;90.60;103060.63;5049341;28;20060;-42
2023/01/26 11:22:12;;;;;;;11.52;2.60;;;;;;;5.96;90.58;103060.31;5049627;28;20056;-42
2023/01/26 11:24:49;;;;;;;7.53;2.78;;;;;;;6.10;90.53;103067.06;5049107;28;20426;-44
2023/01/26 11:27:51;;;;;;;15.25;3.70;;;;;;;6.25;90.30;103069.97;5048415;28;20052;-41
2023/01/26 11:30:41;;;;;;;9.90;1.80;;;;;;;6.31;90.47;103073.59;4967907;28;20083;-43
2023/01/26 11:33:39;;;;;;;15.38;2.38;;;;;;;6.35;90.30;103072.84;5040257;28;20056;-43
2023/01/26 11:36:22;;;;;;;8.25;2.20;;;;;;;6.36;90.49;103068.97;5049776;28;20144;-47
2023/01/26 11:39:13;;;;;;;13.27;1.30;;;;;;;6.38;90.29;103061.28;5047575;28;20066;-42
2023/01/26 11:41:46;;;;;;;11.00;2.45;;;;;;;6.41;90.64;103063.53;5037069;28;20049;-43
2023/01/26 11:44:41;;;;;;;12.35;2.90;;;;;;;6.42;90.78;103056.09;5048964;28;20049;-42
2023/01/26 11:47:26;;;;;;;3.88;1.50;;;;;;;6.42;90.55;103065.19;5037273;28;20045;-42
2023/01/26 11:50:15;;;;;;;7.68;3.20;;;;;;;6.40;90.64;103061.06;5048557;28;20052;-43
2023/01/26 11:53:09;;;;;;;7.63;2.03;;;;;;;6.40;90.43;103053.63;5049028;28;20122;-43
2023/01/26 11:56:09;;;;;;;15.10;2.80;;;;;;;6.44;90.74;103040.16;5048575;28;20052;-43
2023/01/26 11:58:54;;;;;;;10.10;2.28;;;;;;;6.49;90.95;103038.28;5049085;28;20107;-43
2023/01/26 12:01:27;;;;;;;7.38;1.77;;;;;;;6.53;90.73;103042.19;5048673;28;20033;-42
2023/01/26 12:03:55;;;;;;;11.30;1.73;;;;;;;6.57;90.80;103040.56;5048408;28;20055;-42
2023/01/26 12:06:36;;;;;;;5.70;1.52;;;;;;;6.64;90.88;103032.94;5048545;28;20041;-43
2023/01/26 12:09:22;;;;;;;8.10;1.55;;;;;;;6.71;90.73;103041.78;5052078;28;20071;-44
2023/01/26 12:12:11;;;;;;;7.57;1.67;;;;;;;6.73;90.63;103025.00;5048540;28;20080;-43
2023/01/26 12:15:05;;;;;;;10.85;1.85;;;;;;;6.78;90.62;103018.72;5036643;28;20059;-44
2023/01/26 12:18:02;;;;;;;12.75;2.05;;;;;;;6.81;90.48;103021.75;5048852;28;20045;-43
2023/01/26 12:20:38;;;;;;;6.68;2.03;;;;;;;6.86;90.44;103026.47;5048564;28;20061;-46
2023/01/26 12:23:08;;;;;;;21.33;3.75;;;;;;;6.90;90.45;103016.59;5048779;28;20371;-43
2023/01/26 12:25:38;;;;;;;13.43;2.10;;;;;;;6.94;90.48;103017.69;5048860;28;20051;-49